Joseph City, AZ

9:39 PM MST on July 29, 2016 (GMT -0700)
Jefferson School | | Change Station

Elev 4843 ft 35.04 °N, 110.69 °W | Updated 8 seconds ago

Clear
Clear
80.4 °F
Feels Like 80 °F
N
6.0
Wind Variable Wind from WSW
Gusts 13.0 mph

Today
High -- | Low -- °F
--% Chance of Precip.
Yesterday
High -- | Low -- °F
Precip. -- in
Pressure 29.80 in
Visibility 10.0 miles
Clouds Clear
Heat Index 80 °F
Dew Point 50 °F
Humidity 34%
Rainfall 0.04 in
Snow Depth Not available.
5:29 AM 7:26 PM
Waning Crescent, 16% visible
METAR KINW 300356Z AUTO 21020G27KT 10SM CLR 29/08 A3007 RMK AO2 PK WND 21027/0350 SLP091 T02890078
Pressure 29.80 in
Visibility 10.0 miles
Clouds Clear
Heat Index 80 °F
Dew Point 50 °F
Humidity 34%
Rainfall 0.04 in
Snow Depth Not available.
5:29 AM 7:26 PM
Waning Crescent, 16% visible
METAR KINW 300356Z AUTO 21020G27KT 10SM CLR 29/08 A3007 RMK AO2 PK WND 21027/0350 SLP091 T02890078

10-Day Weather Forecast

Almanac

Astronomy

Jul. 29, 2016 Rise Set
Actual Time
Civil Twilight
Nautical Twilight
Astronomical Twilight
Moon
Length of Visible Light
Length of Day
Tomorrow will be .
, % of the Moon is Illuminated

Today's Extremes

State Highs State Lows

Community

WunderPhotos

Upload Photos

1,928,506 photos uploaded!

WunderBlog® & News

Nearby

Air Quality

  Air Quality AQ Index Pollutant
Not available.

Snow Depth

Station Depth Elevation

Earthquake Activity

City Distance Mag. Time & Date
Minimum magnitude displayed is 2.5.

Coastal Water Temperatures

Place Temperature

Stations

Nearby Weather Stations

Station Location Temp. Windchill Dew Point Humidity Wind Precip. Elev Updated Type
                   

Watches & Warnings

There are currently no watches in effect.